หน้าหลัก
METAR-TAF:

METAR-TAF

ท่าอากาศยาน :

Window Rock Airport

Window Rock, แอริโซนา, สหรัฐอเมริกา

ละติจูด: 35-39N, ลองจิจูด: 109-04W, ความสูง: 2055 ม.

การสังเกตสภาพอากาศปัจจุบัน

รายงานได้ทำขึ้นเมื่อ 44 นาทีที่แล้ว ณ เวลา 07:53 UTC
ลม 5 นอตจากใต้/ตะวันตกเฉียงใต้
อุณหภูมิ 7°C
ความชื้น 45%
ความกดอากาศ 1019 hPa
ทัศนวิสัย: 16.1 กม.
ท้องฟ้าแจ่มใส

METAR: KRQE 260753Z AUTO 21005KT 10SM CLR 07/M04 A3009 RMK AO2 SLP100 T00671039 $

เวลา: 01:37 (08:37 UTC)


TAF: หายไป

สังเกตการณ์สภาพอากาศและพยากรณ์อากาศของสนามบินมากกว่า 4000 แห่ง (รายงาน METAR และ TAF).

สถานีที่ดูได้จะแสดงไว้ด้วยจุดสีเหลืองและสีแดงบนแผนที่.

เลื่อนเมาส์ไปเหนือจุดเพื่อดูชื่อสถานี.

แล้วคลิกเพื่อดูสังเกตการณ์และการพยากรณ์สภาพอากาศ.

ในการเปลี่ยนแผนที่: คลิกที่ปุ่มสีเขียวที่มีกากบาทสีดำเพื่อซูมเข้า; ที่ปุ่มสีเขียวที่มีขีดเพื่อซูมออก; หรือที่ลูกศรสีเขียวเพื่อไปยังแผนที่ที่อยู่ติดกัน.


METAR-TAF: